sensor_id;sensor_type;location;lat;lon;timestamp;pressure;altitude;pressure_sealevel;temperature;humidity
44198;BME280;30157;55.512;37.764;2023-07-13T00:02:17;99036.47;;;12.20;77.33
44198;BME280;30157;55.512;37.764;2023-07-13T00:04:42;99097.16;;;12.56;77.37
44198;BME280;30157;55.512;37.764;2023-07-13T00:07:08;99100.66;;;12.55;77.42
44198;BME280;30157;55.512;37.764;2023-07-13T00:09:35;99086.13;;;12.45;77.05
44198;BME280;30157;55.512;37.764;2023-07-13T00:12:01;99027.16;;;12.09;77.11
44198;BME280;30157;55.512;37.764;2023-07-13T00:14:28;99110.94;;;12.62;77.13
44198;BME280;30157;55.512;37.764;2023-07-13T00:16:54;99085.00;;;12.57;77.08
44198;BME280;30157;55.512;37.764;2023-07-13T00:19:21;98994.28;;;12.07;76.74
44198;BME280;30157;55.512;37.764;2023-07-13T00:21:47;99107.19;;;12.72;76.66
44198;BME280;30157;55.512;37.764;2023-07-13T00:24:16;99089.31;;;12.58;76.66
44198;BME280;30157;55.512;37.764;2023-07-13T00:26:44;99031.34;;;12.15;76.62
44198;BME280;30157;55.512;37.764;2023-07-13T00:29:12;99107.50;;;12.59;76.58
44198;BME280;30157;55.512;37.764;2023-07-13T00:31:38;99098.94;;;12.54;76.76
44198;BME280;30157;55.512;37.764;2023-07-13T00:34:04;99006.53;;;12.02;76.42
44198;BME280;30157;55.512;37.764;2023-07-13T00:36:31;99040.00;;;12.17;76.62
44198;BME280;30157;55.512;37.764;2023-07-13T00:38:57;99103.13;;;12.60;76.72
44198;BME280;30157;55.512;37.764;2023-07-13T00:41:24;99044.97;;;12.25;76.69
44198;BME280;30157;55.512;37.764;2023-07-13T00:43:50;99088.69;;;12.48;76.57
44198;BME280;30157;55.512;37.764;2023-07-13T00:46:25;99063.81;;;12.36;76.52
44198;BME280;30157;55.512;37.764;2023-07-13T00:48:51;99109.28;;;12.57;76.36
44198;BME280;30157;55.512;37.764;2023-07-13T00:51:23;99104.09;;;12.56;76.48
44198;BME280;30157;55.512;37.764;2023-07-13T00:53:53;99032.28;;;12.13;76.21
44198;BME280;30157;55.512;37.764;2023-07-13T00:56:19;99109.22;;;12.60;76.18
44198;BME280;30157;55.512;37.764;2023-07-13T00:58:46;99079.25;;;12.42;75.98
44198;BME280;30157;55.512;37.764;2023-07-13T01:01:11;99109.28;;;12.57;76.15
44198;BME280;30157;55.512;37.764;2023-07-13T01:03:38;99037.19;;;12.25;76.08
44198;BME280;30157;55.512;37.764;2023-07-13T01:06:06;99107.53;;;12.58;75.98
44198;BME280;30157;55.512;37.764;2023-07-13T01:08:32;99112.03;;;12.51;76.21
44198;BME280;30157;55.512;37.764;2023-07-13T01:11:00;99049.56;;;12.15;76.73
44198;BME280;30157;55.512;37.764;2023-07-13T01:13:26;99057.22;;;12.21;76.30
44198;BME280;30157;55.512;37.764;2023-07-13T01:15:52;99102.75;;;12.39;76.37
44198;BME280;30157;55.512;37.764;2023-07-13T01:18:22;99108.19;;;12.30;76.89
44198;BME280;30157;55.512;37.764;2023-07-13T01:21:16;99092.81;;;12.19;77.46
44198;BME280;30157;55.512;37.764;2023-07-13T01:23:44;99102.47;;;12.16;77.51
44198;BME280;30157;55.512;37.764;2023-07-13T01:26:10;99088.75;;;12.07;77.55
44198;BME280;30157;55.512;37.764;2023-07-13T01:28:37;99088.69;;;12.10;77.89
44198;BME280;30157;55.512;37.764;2023-07-13T01:31:04;99029.47;;;11.83;77.70
44198;BME280;30157;55.512;37.764;2023-07-13T01:33:30;99070.63;;;12.04;77.75
44198;BME280;30157;55.512;37.764;2023-07-13T01:35:56;99078.56;;;11.98;77.99
44198;BME280;30157;55.512;37.764;2023-07-13T01:38:25;99031.34;;;11.76;78.19
44198;BME280;30157;55.512;37.764;2023-07-13T01:40:52;99089.44;;;12.16;78.12
44198;BME280;30157;55.512;37.764;2023-07-13T01:43:19;99087.78;;;12.13;77.82
44198;BME280;30157;55.512;37.764;2023-07-13T01:45:45;99013.19;;;11.74;78.36
44198;BME280;30157;55.512;37.764;2023-07-13T01:48:12;98869.69;;;10.83;78.30
44198;BME280;30157;55.512;37.764;2023-07-13T01:50:38;99027.94;;;11.72;78.54
44198;BME280;30157;55.512;37.764;2023-07-13T01:53:04;99075.06;;;11.99;78.94
44198;BME280;30157;55.512;37.764;2023-07-13T01:55:31;99079.41;;;11.99;78.95
44198;BME280;30157;55.512;37.764;2023-07-13T01:57:57;99084.66;;;11.97;79.50
44198;BME280;30157;55.512;37.764;2023-07-13T02:00:23;99063.38;;;11.76;79.54
44198;BME280;30157;55.512;37.764;2023-07-13T02:02:48;99079.63;;;11.88;79.42
44198;BME280;30157;55.512;37.764;2023-07-13T02:05:14;99041.75;;;11.76;79.33
44198;BME280;30157;55.512;37.764;2023-07-13T02:07:42;99063.19;;;11.86;79.75
44198;BME280;30157;55.512;37.764;2023-07-13T02:10:08;99010.94;;;11.57;79.72
44198;BME280;30157;55.512;37.764;2023-07-13T02:12:35;99071.75;;;11.91;79.83
44198;BME280;30157;55.512;37.764;2023-07-13T02:15:03;99019.50;;;11.63;79.61
44198;BME280;30157;55.512;37.764;2023-07-13T02:17:34;99071.50;;;12.03;79.59
44198;BME280;30157;55.512;37.764;2023-07-13T02:20:00;98999.63;;;11.60;79.81
44198;BME280;30157;55.512;37.764;2023-07-13T02:22:26;98866.44;;;10.73;79.54
44198;BME280;30157;55.512;37.764;2023-07-13T02:24:51;99061.09;;;12.03;79.48
44198;BME280;30157;55.512;37.764;2023-07-13T02:27:18;99021.75;;;11.80;79.53
44198;BME280;30157;55.512;37.764;2023-07-13T02:29:45;99076.44;;;12.16;79.31
44198;BME280;30157;55.512;37.764;2023-07-13T02:32:11;99043.69;;;12.07;79.34
44198;BME280;30157;55.512;37.764;2023-07-13T02:34:37;99065.75;;;12.28;79.29
44198;BME280;30157;55.512;37.764;2023-07-13T02:37:04;99070.78;;;12.34;79.10
44198;BME280;30157;55.512;37.764;2023-07-13T02:39:30;99072.38;;;12.41;78.89
44198;BME280;30157;55.512;37.764;2023-07-13T02:41:59;99049.25;;;12.27;79.05
44198;BME280;30157;55.512;37.764;2023-07-13T02:44:26;99055.13;;;12.36;78.83
44198;BME280;30157;55.512;37.764;2023-07-13T02:46:52;99050.63;;;12.44;78.76
44198;BME280;30157;55.512;37.764;2023-07-13T02:49:18;99050.44;;;12.50;78.45
44198;BME280;30157;55.512;37.764;2023-07-13T02:51:44;99025.59;;;12.38;78.38
44198;BME280;30157;55.512;37.764;2023-07-13T02:54:10;99018.03;;;12.27;78.39
44198;BME280;30157;55.512;37.764;2023-07-13T02:56:37;99054.91;;;12.47;78.81
44198;BME280;30157;55.512;37.764;2023-07-13T02:59:05;99052.03;;;12.56;78.61
44198;BME280;30157;55.512;37.764;2023-07-13T03:01:30;98972.53;;;12.09;78.46
44198;BME280;30157;55.512;37.764;2023-07-13T03:04:02;99046.13;;;12.51;78.71
44198;BME280;30157;55.512;37.764;2023-07-13T03:06:31;99036.91;;;12.37;78.99
44198;BME280;30157;55.512;37.764;2023-07-13T03:08:57;99038.59;;;12.38;78.85
44198;BME280;30157;55.512;37.764;2023-07-13T03:11:23;99042.81;;;12.44;79.04
44198;BME280;30157;55.512;37.764;2023-07-13T03:14:09;99054.53;;;12.60;78.77
44198;BME280;30157;55.512;37.764;2023-07-13T03:16:38;99035.75;;;12.48;78.98
44198;BME280;30157;55.512;37.764;2023-07-13T03:19:03;99052.81;;;12.59;78.99
44198;BME280;30157;55.512;37.764;2023-07-13T03:21:29;99042.81;;;12.42;79.23
44198;BME280;30157;55.512;37.764;2023-07-13T03:23:55;99039.41;;;12.40;79.29
44198;BME280;30157;55.512;37.764;2023-07-13T03:26:21;98973.47;;;12.07;79.20
44198;BME280;30157;55.512;37.764;2023-07-13T03:28:48;99058.16;;;12.55;79.06
44198;BME280;30157;55.512;37.764;2023-07-13T03:31:30;99072.75;;;12.60;79.34
44198;BME280;30157;55.512;37.764;2023-07-13T03:33:56;98996.38;;;12.27;79.05
44198;BME280;30157;55.512;37.764;2023-07-13T03:36:26;99066.31;;;12.75;78.80
44198;BME280;30157;55.512;37.764;2023-07-13T03:38:58;99050.00;;;12.69;78.78
44198;BME280;30157;55.512;37.764;2023-07-13T03:41:29;99062.88;;;12.73;78.65
44198;BME280;30157;55.512;37.764;2023-07-13T03:43:56;99036.41;;;12.57;78.31
44198;BME280;30157;55.512;37.764;2023-07-13T03:46:24;99056.03;;;12.69;78.43
44198;BME280;30157;55.512;37.764;2023-07-13T03:48:50;98834.78;;;11.34;78.08
44198;BME280;30157;55.512;37.764;2023-07-13T03:51:17;99058.41;;;12.78;78.54
44198;BME280;30157;55.512;37.764;2023-07-13T03:53:45;99063.28;;;12.92;78.18
44198;BME280;30157;55.512;37.764;2023-07-13T03:56:15;99060.53;;;12.97;78.05
44198;BME280;30157;55.512;37.764;2023-07-13T03:58:43;99015.06;;;12.76;77.84
44198;BME280;30157;55.512;37.764;2023-07-13T04:01:22;99041.50;;;12.95;77.69
44198;BME280;30157;55.512;37.764;2023-07-13T04:03:48;99054.16;;;13.09;77.49
44198;BME280;30157;55.512;37.764;2023-07-13T04:06:23;99039.47;;;13.06;77.43
44198;BME280;30157;55.512;37.764;2023-07-13T04:08:51;99059.84;;;13.22;77.16
44198;BME280;30157;55.512;37.764;2023-07-13T04:11:18;99011.00;;;12.99;77.10
44198;BME280;30157;55.512;37.764;2023-07-13T04:13:44;98852.41;;;11.95;76.93
44198;BME280;30157;55.512;37.764;2023-07-13T04:16:12;98995.81;;;12.83;76.84
44198;BME280;30157;55.512;37.764;2023-07-13T04:18:38;99052.72;;;13.30;76.87
44198;BME280;30157;55.512;37.764;2023-07-13T04:21:04;99033.75;;;13.25;76.63
44198;BME280;30157;55.512;37.764;2023-07-13T04:23:30;99063.44;;;13.51;76.41
44198;BME280;30157;55.512;37.764;2023-07-13T04:25:56;99048.22;;;13.37;76.19
44198;BME280;30157;55.512;37.764;2023-07-13T04:28:23;99010.59;;;13.14;76.23
44198;BME280;30157;55.512;37.764;2023-07-13T04:30:50;99044.63;;;13.39;76.13
44198;BME280;30157;55.512;37.764;2023-07-13T04:33:16;99043.53;;;13.48;76.03
44198;BME280;30157;55.512;37.764;2023-07-13T04:35:43;99070.19;;;13.58;76.04
44198;BME280;30157;55.512;37.764;2023-07-13T04:38:09;98999.78;;;13.28;75.68
44198;BME280;30157;55.512;37.764;2023-07-13T04:40:37;99038.38;;;13.47;76.13
44198;BME280;30157;55.512;37.764;2023-07-13T04:43:03;99017.78;;;13.37;76.00
44198;BME280;30157;55.512;37.764;2023-07-13T04:45:29;98991.44;;;13.15;76.24
44198;BME280;30157;55.512;37.764;2023-07-13T04:47:56;98976.09;;;13.06;76.31
44198;BME280;30157;55.512;37.764;2023-07-13T04:50:22;99044.41;;;13.47;76.25
44198;BME280;30157;55.512;37.764;2023-07-13T04:52:50;99059.59;;;13.64;76.18
44198;BME280;30157;55.512;37.764;2023-07-13T04:55:16;99034.56;;;13.57;75.80
44198;BME280;30157;55.512;37.764;2023-07-13T04:57:43;99001.00;;;13.46;75.71
44198;BME280;30157;55.512;37.764;2023-07-13T05:00:09;99053.59;;;13.60;76.41
44198;BME280;30157;55.512;37.764;2023-07-13T05:02:37;99040.97;;;13.47;76.65
44198;BME280;30157;55.512;37.764;2023-07-13T05:05:04;99057.34;;;13.52;76.74
44198;BME280;30157;55.512;37.764;2023-07-13T05:07:30;99068.47;;;13.57;76.80
44198;BME280;30157;55.512;37.764;2023-07-13T05:09:59;99020.75;;;13.23;76.85
44198;BME280;30157;55.512;37.764;2023-07-13T05:12:26;99074.34;;;13.65;76.65
44198;BME280;30157;55.512;37.764;2023-07-13T05:14:51;99063.66;;;13.73;76.49
44198;BME280;30157;55.512;37.764;2023-07-13T05:17:17;99056.50;;;13.80;76.36
44198;BME280;30157;55.512;37.764;2023-07-13T05:19:43;99045.91;;;13.86;75.99
44198;BME280;30157;55.512;37.764;2023-07-13T05:22:09;99073.09;;;14.07;75.42
44198;BME280;30157;55.512;37.764;2023-07-13T05:24:34;99068.53;;;14.14;75.33
44198;BME280;30157;55.512;37.764;2023-07-13T05:27:00;99065.59;;;14.24;74.96
44198;BME280;30157;55.512;37.764;2023-07-13T05:29:26;99069.63;;;14.33;74.57
44198;BME280;30157;55.512;37.764;2023-07-13T05:31:52;99059.00;;;14.39;74.34
44198;BME280;30157;55.512;37.764;2023-07-13T05:34:17;99010.81;;;14.23;73.88
44198;BME280;30157;55.512;37.764;2023-07-13T05:36:43;99053.03;;;14.62;73.58
44198;BME280;30157;55.512;37.764;2023-07-13T05:39:09;99040.41;;;14.75;73.00
44198;BME280;30157;55.512;37.764;2023-07-13T05:41:35;99017.25;;;14.66;72.60
44198;BME280;30157;55.512;37.764;2023-07-13T05:44:01;99047.63;;;14.94;72.44
44198;BME280;30157;55.512;37.764;2023-07-13T05:46:27;99055.97;;;15.05;71.75
44198;BME280;30157;55.512;37.764;2023-07-13T05:48:52;99053.81;;;15.17;71.71
44198;BME280;30157;55.512;37.764;2023-07-13T05:51:18;99014.41;;;14.98;71.06
44198;BME280;30157;55.512;37.764;2023-07-13T05:53:44;99028.28;;;15.23;70.53
44198;BME280;30157;55.512;37.764;2023-07-13T05:56:09;99036.84;;;15.52;70.34
44198;BME280;30157;55.512;37.764;2023-07-13T05:58:35;99014.09;;;15.54;69.97
44198;BME280;30157;55.512;37.764;2023-07-13T06:01:06;99032.88;;;15.88;69.37
44198;BME280;30157;55.512;37.764;2023-07-13T06:03:33;99009.03;;;15.95;67.86
44198;BME280;30157;55.512;37.764;2023-07-13T06:05:59;99055.41;;;16.36;67.93
44198;BME280;30157;55.512;37.764;2023-07-13T06:08:28;99046.38;;;16.43;67.25
44198;BME280;30157;55.512;37.764;2023-07-13T06:10:54;98971.00;;;15.87;66.56
44198;BME280;30157;55.512;37.764;2023-07-13T06:13:20;99047.72;;;16.54;66.62
44198;BME280;30157;55.512;37.764;2023-07-13T06:15:49;98980.59;;;16.51;66.29
44198;BME280;30157;55.512;37.764;2023-07-13T06:18:15;99009.97;;;16.78;65.71
44198;BME280;30157;55.512;37.764;2023-07-13T06:20:41;99029.28;;;16.98;65.20
44198;BME280;30157;55.512;37.764;2023-07-13T06:23:07;99028.53;;;17.15;65.02
44198;BME280;30157;55.512;37.764;2023-07-13T06:25:33;98962.38;;;16.69;64.29
44198;BME280;30157;55.512;37.764;2023-07-13T06:27:59;98991.09;;;16.92;64.01
44198;BME280;30157;55.512;37.764;2023-07-13T06:30:24;99025.38;;;17.27;63.05
44198;BME280;30157;55.512;37.764;2023-07-13T06:32:50;99001.97;;;17.23;62.50
44198;BME280;30157;55.512;37.764;2023-07-13T06:35:16;98956.72;;;16.99;61.50
44198;BME280;30157;55.512;37.764;2023-07-13T06:37:42;98993.97;;;17.45;61.78
44198;BME280;30157;55.512;37.764;2023-07-13T06:40:08;99009.97;;;17.77;61.21
44198;BME280;30157;55.512;37.764;2023-07-13T06:42:34;99000.41;;;17.38;60.84
44198;BME280;30157;55.512;37.764;2023-07-13T06:44:59;99026.28;;;17.45;60.65
44198;BME280;30157;55.512;37.764;2023-07-13T06:47:25;99004.97;;;17.34;60.28
44198;BME280;30157;55.512;37.764;2023-07-13T06:49:51;98999.28;;;17.62;59.22
44198;BME280;30157;55.512;37.764;2023-07-13T06:52:16;99002.59;;;17.85;58.95
44198;BME280;30157;55.512;37.764;2023-07-13T06:54:42;98979.69;;;17.70;58.38
44198;BME280;30157;55.512;37.764;2023-07-13T06:57:08;99002.97;;;17.77;58.00
44198;BME280;30157;55.512;37.764;2023-07-13T06:59:34;99024.22;;;17.71;57.47
44198;BME280;30157;55.512;37.764;2023-07-13T07:01:59;99003.38;;;17.68;57.82
44198;BME280;30157;55.512;37.764;2023-07-13T07:04:25;99001.72;;;17.85;57.79
44198;BME280;30157;55.512;37.764;2023-07-13T07:06:51;98984.34;;;17.82;58.32
44198;BME280;30157;55.512;37.764;2023-07-13T07:09:17;99021.56;;;17.90;58.59
44198;BME280;30157;55.512;37.764;2023-07-13T07:11:42;98882.34;;;17.01;58.72
44198;BME280;30157;55.512;37.764;2023-07-13T07:14:08;98996.00;;;17.76;58.71
44198;BME280;30157;55.512;37.764;2023-07-13T07:16:34;98948.50;;;17.63;58.37
44198;BME280;30157;55.512;37.764;2023-07-13T07:19:00;98975.44;;;17.67;58.07
44198;BME280;30157;55.512;37.764;2023-07-13T07:21:26;99012.16;;;17.86;58.01
44198;BME280;30157;55.512;37.764;2023-07-13T07:23:52;99023.91;;;18.16;57.76
44198;BME280;30157;55.512;37.764;2023-07-13T07:26:19;99030.59;;;18.40;56.60
44198;BME280;30157;55.512;37.764;2023-07-13T07:28:44;98947.13;;;17.74;55.73
44198;BME280;30157;55.512;37.764;2023-07-13T07:31:10;99011.03;;;17.73;56.64
44198;BME280;30157;55.512;37.764;2023-07-13T07:33:36;99017.84;;;17.58;57.75
44198;BME280;30157;55.512;37.764;2023-07-13T07:36:04;99021.84;;;17.48;57.95
44198;BME280;30157;55.512;37.764;2023-07-13T07:38:30;99009.31;;;17.15;58.68
44198;BME280;30157;55.512;37.764;2023-07-13T07:40:56;98950.34;;;16.65;59.39
44198;BME280;30157;55.512;37.764;2023-07-13T07:43:22;98936.50;;;16.61;60.04
44198;BME280;30157;55.512;37.764;2023-07-13T07:45:47;99023.16;;;17.18;59.35
44198;BME280;30157;55.512;37.764;2023-07-13T07:48:13;99039.25;;;17.29;59.73
44198;BME280;30157;55.512;37.764;2023-07-13T07:50:39;98856.28;;;16.19;59.87
44198;BME280;30157;55.512;37.764;2023-07-13T07:53:06;98999.97;;;17.28;60.05
44198;BME280;30157;55.512;37.764;2023-07-13T07:55:35;99035.03;;;17.65;59.42
44198;BME280;30157;55.512;37.764;2023-07-13T07:58:02;99038.81;;;17.77;58.84
44198;BME280;30157;55.512;37.764;2023-07-13T08:00:28;99028.56;;;17.72;58.53
44198;BME280;30157;55.512;37.764;2023-07-13T08:02:56;99039.69;;;17.77;58.58
44198;BME280;30157;55.512;37.764;2023-07-13T08:05:21;99048.47;;;17.76;58.51
44198;BME280;30157;55.512;37.764;2023-07-13T08:07:47;99026.38;;;17.63;59.20
44198;BME280;30157;55.512;37.764;2023-07-13T08:10:13;98897.88;;;16.85;59.06
44198;BME280;30157;55.512;37.764;2023-07-13T08:12:39;99029.56;;;17.51;59.29
44198;BME280;30157;55.512;37.764;2023-07-13T08:15:10;99041.53;;;17.37;59.94
44198;BME280;30157;55.512;37.764;2023-07-13T08:17:36;98997.03;;;16.96;60.33
44198;BME280;30157;55.512;37.764;2023-07-13T08:20:02;99048.13;;;17.06;60.93
44198;BME280;30157;55.512;37.764;2023-07-13T08:22:31;99060.50;;;17.03;60.87
44198;BME280;30157;55.512;37.764;2023-07-13T08:24:57;99043.78;;;16.85;60.54
44198;BME280;30157;55.512;37.764;2023-07-13T08:27:23;99056.09;;;16.83;60.59
44198;BME280;30157;55.512;37.764;2023-07-13T08:29:51;99046.81;;;16.55;59.72
44198;BME280;30157;55.512;37.764;2023-07-13T08:32:18;99004.16;;;16.31;59.66
44198;BME280;30157;55.512;37.764;2023-07-13T08:34:44;99045.41;;;16.46;59.48
44198;BME280;30157;55.512;37.764;2023-07-13T08:37:10;98912.28;;;15.72;59.98
44198;BME280;30157;55.512;37.764;2023-07-13T08:39:36;99064.16;;;16.57;60.44
44198;BME280;30157;55.512;37.764;2023-07-13T08:42:07;99070.97;;;16.61;60.78
44198;BME280;30157;55.512;37.764;2023-07-13T08:44:39;99062.97;;;16.65;61.91
44198;BME280;30157;55.512;37.764;2023-07-13T08:47:09;99040.22;;;16.44;62.67
44198;BME280;30157;55.512;37.764;2023-07-13T08:49:38;99050.69;;;16.44;63.20
44198;BME280;30157;55.512;37.764;2023-07-13T08:52:12;99052.66;;;16.39;65.30
44198;BME280;30157;55.512;37.764;2023-07-13T08:54:49;99057.00;;;16.18;66.12
44198;BME280;30157;55.512;37.764;2023-07-13T08:57:19;99036.25;;;16.13;66.46
44198;BME280;30157;55.512;37.764;2023-07-13T08:59:46;98998.81;;;15.89;67.14
44198;BME280;30157;55.512;37.764;2023-07-13T09:02:26;99063.94;;;16.19;68.19
44198;BME280;30157;55.512;37.764;2023-07-13T09:05:18;99064.38;;;16.31;68.19
44198;BME280;30157;55.512;37.764;2023-07-13T09:10:43;99033.69;;;16.12;69.85
44198;BME280;30157;55.512;37.764;2023-07-13T09:15:50;99044.63;;;16.22;71.25
44198;BME280;30157;55.512;37.764;2023-07-13T09:18:23;99052.28;;;16.49;71.27
44198;BME280;30157;55.512;37.764;2023-07-13T09:20:53;99053.53;;;16.60;70.36
44198;BME280;30157;55.512;37.764;2023-07-13T09:23:21;99034.00;;;16.47;68.56
44198;BME280;30157;55.512;37.764;2023-07-13T09:25:51;99047.94;;;16.48;70.25
44198;BME280;30157;55.512;37.764;2023-07-13T09:28:26;99059.16;;;16.51;70.10
44198;BME280;30157;55.512;37.764;2023-07-13T09:31:01;98979.50;;;16.14;70.25
44198;BME280;30157;55.512;37.764;2023-07-13T09:33:28;99039.97;;;16.51;70.13
44198;BME280;30157;55.512;37.764;2023-07-13T09:35:57;99042.59;;;16.51;68.12
44198;BME280;30157;55.512;37.764;2023-07-13T09:38:27;98995.09;;;16.38;66.83
44198;BME280;30157;55.512;37.764;2023-07-13T09:43:36;99049.41;;;16.75;67.06
44198;BME280;30157;55.512;37.764;2023-07-13T09:46:02;99060.22;;;16.90;66.88
44198;BME280;30157;55.512;37.764;2023-07-13T09:48:35;99049.72;;;16.90;65.68
44198;BME280;30157;55.512;37.764;2023-07-13T09:51:14;99055.72;;;16.92;65.43
44198;BME280;30157;55.512;37.764;2023-07-13T09:53:42;99051.28;;;16.94;65.42
44198;BME280;30157;55.512;37.764;2023-07-13T09:56:22;99029.19;;;16.79;66.04
44198;BME280;30157;55.512;37.764;2023-07-13T09:58:49;99035.78;;;16.88;66.54
44198;BME280;30157;55.512;37.764;2023-07-13T10:01:15;99045.13;;;16.95;67.14
44198;BME280;30157;55.512;37.764;2023-07-13T10:03:53;99039.28;;;16.88;67.77
44198;BME280;30157;55.512;37.764;2023-07-13T10:06:21;99071.28;;;16.96;67.63
44198;BME280;30157;55.512;37.764;2023-07-13T10:08:48;99064.81;;;16.83;68.13
44198;BME280;30157;55.512;37.764;2023-07-13T10:11:26;99075.38;;;16.82;68.22
44198;BME280;30157;55.512;37.764;2023-07-13T10:13:58;99031.03;;;16.34;68.42
44198;BME280;30157;55.512;37.764;2023-07-13T10:16:28;99059.97;;;16.31;69.52
44198;BME280;30157;55.512;37.764;2023-07-13T10:19:14;99036.38;;;16.10;68.73
44198;BME280;30157;55.512;37.764;2023-07-13T10:21:52;99068.81;;;16.28;69.01
44198;BME280;30157;55.512;37.764;2023-07-13T10:24:31;99003.91;;;15.92;68.85
44198;BME280;30157;55.512;37.764;2023-07-13T10:27:01;99089.38;;;16.38;68.93
44198;BME280;30157;55.512;37.764;2023-07-13T10:29:34;99077.53;;;16.29;69.22
44198;BME280;30157;55.512;37.764;2023-07-13T10:32:04;99085.19;;;16.34;69.80
44198;BME280;30157;55.512;37.764;2023-07-13T10:34:35;99037.47;;;16.05;69.84
44198;BME280;30157;55.512;37.764;2023-07-13T10:37:05;99092.72;;;16.41;69.75
44198;BME280;30157;55.512;37.764;2023-07-13T10:39:34;98914.59;;;15.35;69.92
44198;BME280;30157;55.512;37.764;2023-07-13T10:42:05;99085.03;;;16.37;70.52
44198;BME280;30157;55.512;37.764;2023-07-13T10:44:33;99096.03;;;16.46;70.36
44198;BME280;30157;55.512;37.764;2023-07-13T10:47:07;99094.13;;;16.50;70.72
44198;BME280;30157;55.512;37.764;2023-07-13T10:49:35;99097.53;;;16.52;70.92
44198;BME280;30157;55.512;37.764;2023-07-13T10:52:02;99051.44;;;16.26;70.95
44198;BME280;30157;55.512;37.764;2023-07-13T10:54:32;99097.34;;;16.57;71.71
44198;BME280;30157;55.512;37.764;2023-07-13T10:57:19;99109.53;;;16.58;71.82
44198;BME280;30157;55.512;37.764;2023-07-13T11:02:32;99091.88;;;16.41;72.74
44198;BME280;30157;55.512;37.764;2023-07-13T11:04:57;99069.28;;;16.16;73.02
44198;BME280;30157;55.512;37.764;2023-07-13T11:07:27;99096.50;;;16.34;73.75
44198;BME280;30157;55.512;37.764;2023-07-13T11:09:55;99074.72;;;16.11;74.31
44198;BME280;30157;55.512;37.764;2023-07-13T11:23:45;99106.34;;;15.83;77.51
44198;BME280;30157;55.512;37.764;2023-07-13T11:25:39;99118.63;;;15.79;77.53
44198;BME280;30157;55.512;37.764;2023-07-13T11:36:03;99116.50;;;15.67;77.96
44198;BME280;30157;55.512;37.764;2023-07-13T11:41:17;99111.28;;;15.42;79.27
44198;BME280;30157;55.512;37.764;2023-07-13T11:43:51;99091.88;;;15.24;79.89
44198;BME280;30157;55.512;37.764;2023-07-13T11:46:24;99118.13;;;15.21;80.48
44198;BME280;30157;55.512;37.764;2023-07-13T11:48:51;99110.66;;;15.10;80.63
44198;BME280;30157;55.512;37.764;2023-07-13T11:51:21;99079.03;;;14.92;81.71
44198;BME280;30157;55.512;37.764;2023-07-13T11:53:50;99105.69;;;15.02;81.91
44198;BME280;30157;55.512;37.764;2023-07-13T11:56:16;99048.00;;;14.56;81.99
44198;BME280;30157;55.512;37.764;2023-07-13T11:58:43;99091.44;;;14.86;82.25
44198;BME280;30157;55.512;37.764;2023-07-13T12:01:21;99092.31;;;14.86;83.50
44198;BME280;30157;55.512;37.764;2023-07-13T12:03:48;99077.84;;;14.76;82.53
44198;BME280;30157;55.512;37.764;2023-07-13T12:06:27;99109.75;;;14.86;82.02
44198;BME280;30157;55.512;37.764;2023-07-13T12:08:59;99096.97;;;14.76;81.80
44198;BME280;30157;55.512;37.764;2023-07-13T12:11:26;99092.06;;;14.67;81.83
44198;BME280;30157;55.512;37.764;2023-07-13T12:13:52;99049.47;;;14.38;81.96
44198;BME280;30157;55.512;37.764;2023-07-13T12:16:32;99049.25;;;14.18;81.98
44198;BME280;30157;55.512;37.764;2023-07-13T12:19:02;99060.72;;;14.12;81.98
44198;BME280;30157;55.512;37.764;2023-07-13T12:21:37;99080.25;;;14.00;81.93
44198;BME280;30157;55.512;37.764;2023-07-13T12:24:04;99102.19;;;13.93;81.26
44198;BME280;30157;55.512;37.764;2023-07-13T12:26:31;99104.13;;;13.86;80.31
44198;BME280;30157;55.512;37.764;2023-07-13T12:29:00;99096.41;;;13.83;80.91
44198;BME280;30157;55.512;37.764;2023-07-13T12:36:30;99074.16;;;14.00;79.99
44198;BME280;30157;55.512;37.764;2023-07-13T12:39:06;99098.63;;;14.24;80.25
44198;BME280;30157;55.512;37.764;2023-07-13T12:41:37;99108.63;;;14.39;80.02
44198;BME280;30157;55.512;37.764;2023-07-13T12:44:02;99101.38;;;14.48;79.27
44198;BME280;30157;55.512;37.764;2023-07-13T12:46:28;99098.44;;;14.58;79.32
44198;BME280;30157;55.512;37.764;2023-07-13T12:48:57;99095.69;;;14.63;79.40
44198;BME280;30157;55.512;37.764;2023-07-13T12:51:25;99096.44;;;14.67;79.45
44198;BME280;30157;55.512;37.764;2023-07-13T12:54:10;99077.34;;;14.65;79.82
44198;BME280;30157;55.512;37.764;2023-07-13T12:56:38;99082.66;;;14.61;79.83
44198;BME280;30157;55.512;37.764;2023-07-13T12:59:04;99084.94;;;14.72;80.02
44198;BME280;30157;55.512;37.764;2023-07-13T13:01:35;99057.72;;;14.53;80.22
44198;BME280;30157;55.512;37.764;2023-07-13T13:04:03;99078.50;;;14.56;80.96
44198;BME280;30157;55.512;37.764;2023-07-13T13:06:36;99055.63;;;14.36;81.04
44198;BME280;30157;55.512;37.764;2023-07-13T13:09:03;99083.91;;;14.50;81.56
44198;BME280;30157;55.512;37.764;2023-07-13T13:11:31;99068.69;;;14.36;81.94
44198;BME280;30157;55.512;37.764;2023-07-13T13:13:57;99016.59;;;14.06;82.21
44198;BME280;30157;55.512;37.764;2023-07-13T13:18:54;99074.38;;;14.49;81.69
44198;BME280;30157;55.512;37.764;2023-07-13T13:21:20;99085.66;;;14.49;81.50
44198;BME280;30157;55.512;37.764;2023-07-13T13:23:46;99074.47;;;14.45;81.53
44198;BME280;30157;55.512;37.764;2023-07-13T13:26:14;99088.66;;;14.65;81.66
44198;BME280;30157;55.512;37.764;2023-07-13T13:28:42;99092.19;;;14.62;81.63
44198;BME280;30157;55.512;37.764;2023-07-13T13:31:10;99071.06;;;14.43;81.73
44198;BME280;30157;55.512;37.764;2023-07-13T13:33:39;99033.69;;;14.15;81.56
44198;BME280;30157;55.512;37.764;2023-07-13T13:36:20;99063.63;;;14.31;81.71